Time;durP1;ratioP1;P1;durP2;ratioP2;P2;SDS_P1;SDS_P2;PMS_P1;PMS_P2;Temp;Humidity;BMP_temperature;BMP_pressure;BME280_temperature;BME280_humidity;BME280_pressure;Samples;Min_cycle;Max_cycle;Signal;HPM_P1;HPM_P2
2023/05/19 00:01:59;;;;;;;0.00;0.00;;;;;;;;;;5075264;28;20032;-85
2023/05/19 00:04:26;;;;;;;0.10;0.10;;;;;;;;;;5076080;28;20104;-84
2023/05/19 00:06:52;;;;;;;0.00;0.00;;;;;;;;;;5073118;28;20470;-83
2023/05/19 00:09:18;;;;;;;0.00;0.00;;;;;;;;;;5077124;28;20028;-86
2023/05/19 00:11:44;;;;;;;0.00;0.00;;;;;;;;;;5072786;28;20032;-85
2023/05/19 00:14:10;;;;;;;0.00;0.00;;;;;;;;;;5080158;28;20069;-87
2023/05/19 00:16:41;;;;;;;0.00;0.00;;;;;;;;;;5074522;28;20032;-86
2023/05/19 00:19:08;;;;;;;0.00;0.00;;;;;;;;;;5117978;28;20460;-85
2023/05/19 00:21:36;;;;;;;0.00;0.00;;;;;;;;;;5081648;28;20376;-83
2023/05/19 00:24:02;;;;;;;0.00;0.00;;;;;;;;;;5085505;28;20039;-84
2023/05/19 00:26:30;;;;;;;0.00;0.00;;;;;;;;;;5070850;28;20020;-84
2023/05/19 00:28:56;;;;;;;0.00;0.00;;;;;;;;;;5070758;28;20024;-84
2023/05/19 00:31:21;;;;;;;0.03;0.03;;;;;;;;;;5077811;28;20039;-85
2023/05/19 00:33:47;;;;;;;0.00;0.00;;;;;;;;;;5080953;28;20043;-85
2023/05/19 00:36:12;;;;;;;0.00;0.00;;;;;;;;;;5080336;28;20392;-84
2023/05/19 00:38:38;;;;;;;0.00;0.00;;;;;;;;;;5081961;28;20023;-83
2023/05/19 00:41:05;;;;;;;0.00;0.00;;;;;;;;;;5079977;28;20381;-84
2023/05/19 00:43:33;;;;;;;0.00;0.00;;;;;;;;;;5076338;28;20074;-85
2023/05/19 00:45:59;;;;;;;0.00;0.00;;;;;;;;;;5078046;28;20028;-84
2023/05/19 00:48:25;;;;;;;0.00;0.00;;;;;;;;;;5079959;28;20025;-85
2023/05/19 00:50:53;;;;;;;0.00;0.00;;;;;;;;;;5081993;28;20080;-84
2023/05/19 00:53:19;;;;;;;0.00;0.00;;;;;;;;;;5072592;28;20060;-85
2023/05/19 00:55:46;;;;;;;0.00;0.00;;;;;;;;;;5085915;28;20400;-84
2023/05/19 00:58:16;;;;;;;0.00;0.00;;;;;;;;;;5082877;28;20453;-84
2023/05/19 01:00:43;;;;;;;0.00;0.00;;;;;;;;;;5079923;28;20032;-87
2023/05/19 01:03:11;;;;;;;0.00;0.00;;;;;;;;;;5081744;28;20111;-85
2023/05/19 01:05:41;;;;;;;0.00;0.00;;;;;;;;;;5082970;28;20044;-86
2023/05/19 01:08:07;;;;;;;0.00;0.00;;;;;;;;;;5084233;28;20046;-85
2023/05/19 01:10:33;;;;;;;0.00;0.00;;;;;;;;;;5087052;28;20050;-85
2023/05/19 01:13:00;;;;;;;0.00;0.00;;;;;;;;;;5082201;28;20106;-86
2023/05/19 01:15:27;;;;;;;0.13;0.13;;;;;;;;;;5079441;28;20027;-85
2023/05/19 01:18:02;;;;;;;0.15;0.15;;;;;;;;;;5088522;28;20032;-85
2023/05/19 01:20:37;;;;;;;0.00;0.00;;;;;;;;;;5083001;28;20047;-84
2023/05/19 01:23:30;;;;;;;0.08;0.08;;;;;;;;;;5079429;28;20048;-84
2023/05/19 01:26:18;;;;;;;0.00;0.00;;;;;;;;;;5070318;28;20092;-85
2023/05/19 01:28:52;;;;;;;1.48;0.43;;;;;;;;;;5080677;28;20046;-85
2023/05/19 01:31:22;;;;;;;0.00;0.00;;;;;;;;;;5079300;28;20055;-81
2023/05/19 01:33:50;;;;;;;0.03;0.03;;;;;;;;;;5073362;28;20021;-83
2023/05/19 01:36:18;;;;;;;0.00;0.00;;;;;;;;;;5083570;28;20047;-82
2023/05/19 01:38:51;;;;;;;0.00;0.00;;;;;;;;;;5086517;28;20028;-85
2023/05/19 01:41:19;;;;;;;0.00;0.00;;;;;;;;;;5078349;28;20032;-85
2023/05/19 01:43:46;;;;;;;0.00;0.00;;;;;;;;;;5075693;28;20060;-83
2023/05/19 01:46:12;;;;;;;0.05;0.05;;;;;;;;;;5083188;28;20498;-84
2023/05/19 01:48:38;;;;;;;0.03;0.03;;;;;;;;;;5076426;28;20055;-84
2023/05/19 01:51:04;;;;;;;0.03;0.03;;;;;;;;;;5083465;28;20476;-84
2023/05/19 01:53:32;;;;;;;0.00;0.00;;;;;;;;;;5081939;28;20044;-83
2023/05/19 01:55:58;;;;;;;0.10;0.10;;;;;;;;;;5079314;28;20036;-83
2023/05/19 01:58:44;;;;;;;0.10;0.10;;;;;;;;;;5084018;28;20047;-82
2023/05/19 02:01:13;;;;;;;0.00;0.00;;;;;;;;;;5086451;28;20043;-83
2023/05/19 02:03:57;;;;;;;0.10;0.10;;;;;;;;;;5075367;28;20060;-84
2023/05/19 02:06:44;;;;;;;0.00;0.00;;;;;;;;;;5084184;28;20028;-83
2023/05/19 02:09:39;;;;;;;0.00;0.00;;;;;;;;;;5082953;28;20020;-86
2023/05/19 02:12:22;;;;;;;0.00;0.00;;;;;;;;;;5074848;28;20069;-83
2023/05/19 02:15:10;;;;;;;0.00;0.00;;;;;;;;;;5081556;28;20032;-85
2023/05/19 02:17:40;;;;;;;0.08;0.08;;;;;;;;;;5086233;28;20204;-84
2023/05/19 02:20:08;;;;;;;0.00;0.00;;;;;;;;;;5076912;28;20032;-83
2023/05/19 02:22:34;;;;;;;0.00;0.00;;;;;;;;;;5076722;28;20426;-82
2023/05/19 02:24:59;;;;;;;0.08;0.08;;;;;;;;;;5075921;28;20111;-84
2023/05/19 02:27:25;;;;;;;0.05;0.05;;;;;;;;;;5067384;28;20035;-85
2023/05/19 02:29:51;;;;;;;0.00;0.00;;;;;;;;;;5073419;28;20099;-81
2023/05/19 02:32:17;;;;;;;0.00;0.00;;;;;;;;;;5077345;28;20083;-81
2023/05/19 02:34:44;;;;;;;0.00;0.00;;;;;;;;;;5072285;28;20025;-83
2023/05/19 02:37:12;;;;;;;0.00;0.00;;;;;;;;;;5084906;28;20024;-83
2023/05/19 02:39:38;;;;;;;0.20;0.20;;;;;;;;;;5075846;28;20403;-84
2023/05/19 02:42:03;;;;;;;0.00;0.00;;;;;;;;;;5073652;28;20028;-84
2023/05/19 02:44:29;;;;;;;0.05;0.05;;;;;;;;;;5119839;27;20108;-82
2023/05/19 02:46:57;;;;;;;0.00;0.00;;;;;;;;;;5085858;28;20028;-83
2023/05/19 02:49:22;;;;;;;0.00;0.00;;;;;;;;;;5077261;28;20024;-83
2023/05/19 02:51:48;;;;;;;0.00;0.00;;;;;;;;;;5081813;28;20072;-83
2023/05/19 02:54:13;;;;;;;0.00;0.00;;;;;;;;;;5084158;28;20024;-82
2023/05/19 02:56:39;;;;;;;0.00;0.00;;;;;;;;;;5078454;28;20039;-83
2023/05/19 02:59:05;;;;;;;0.00;0.00;;;;;;;;;;5075333;28;20460;-86
2023/05/19 03:01:31;;;;;;;0.10;0.10;;;;;;;;;;5075264;28;20031;-82
2023/05/19 03:03:57;;;;;;;0.00;0.00;;;;;;;;;;5107892;27;20035;-84
2023/05/19 03:06:23;;;;;;;0.45;0.40;;;;;;;;;;5082245;28;20032;-83
2023/05/19 03:08:49;;;;;;;0.00;0.00;;;;;;;;;;5073248;28;20553;-83
2023/05/19 03:11:15;;;;;;;0.00;0.00;;;;;;;;;;5076817;28;20479;-82
2023/05/19 03:13:40;;;;;;;0.00;0.00;;;;;;;;;;5074045;28;20089;-81
2023/05/19 03:16:06;;;;;;;0.00;0.00;;;;;;;;;;5076081;28;20050;-82
2023/05/19 03:18:33;;;;;;;0.00;0.00;;;;;;;;;;5075996;28;20023;-84
2023/05/19 03:20:58;;;;;;;0.17;0.17;;;;;;;;;;5079555;28;20035;-83
2023/05/19 03:23:25;;;;;;;0.15;0.15;;;;;;;;;;5070305;28;20107;-82
2023/05/19 03:25:52;;;;;;;0.00;0.00;;;;;;;;;;5079200;28;20025;-84
2023/05/19 03:28:18;;;;;;;0.20;0.20;;;;;;;;;;5068579;28;20020;-83
2023/05/19 03:30:44;;;;;;;0.03;0.03;;;;;;;;;;5107113;27;20084;-83
2023/05/19 03:33:09;;;;;;;0.00;0.00;;;;;;;;;;5081060;28;20024;-81
2023/05/19 03:35:35;;;;;;;0.08;0.08;;;;;;;;;;5074712;28;20047;-83
2023/05/19 03:38:00;;;;;;;0.00;0.00;;;;;;;;;;5105559;28;20077;-82
2023/05/19 03:40:26;;;;;;;0.10;0.10;;;;;;;;;;5090013;28;20095;-81
2023/05/19 03:42:53;;;;;;;0.05;0.05;;;;;;;;;;5072138;28;20036;-82
2023/05/19 03:45:18;;;;;;;0.00;0.00;;;;;;;;;;5079943;28;20127;-83
2023/05/19 03:47:46;;;;;;;0.10;0.10;;;;;;;;;;5071794;28;20123;-81
2023/05/19 03:50:11;;;;;;;0.10;0.10;;;;;;;;;;5083850;28;20028;-81
2023/05/19 03:52:38;;;;;;;0.00;0.00;;;;;;;;;;5083445;28;20506;-83
2023/05/19 03:55:05;;;;;;;0.10;0.10;;;;;;;;;;5078045;28;20020;-84
2023/05/19 03:57:32;;;;;;;0.30;0.30;;;;;;;;;;5081606;28;20391;-83
2023/05/19 03:59:58;;;;;;;0.00;0.00;;;;;;;;;;5087571;28;20034;-82
2023/05/19 04:02:24;;;;;;;0.00;0.00;;;;;;;;;;5064250;28;20380;-83
2023/05/19 04:04:49;;;;;;;0.30;0.30;;;;;;;;;;5065707;28;20032;-83
2023/05/19 04:07:15;;;;;;;0.00;0.00;;;;;;;;;;5071861;28;20024;-84
2023/05/19 04:09:41;;;;;;;0.00;0.00;;;;;;;;;;5081434;28;20023;-84
2023/05/19 04:12:07;;;;;;;0.00;0.00;;;;;;;;;;5075259;28;20039;-81
2023/05/19 04:14:32;;;;;;;0.08;0.08;;;;;;;;;;5081695;28;20060;-84
2023/05/19 04:16:58;;;;;;;0.00;0.00;;;;;;;;;;5074814;28;20400;-82
2023/05/19 04:19:24;;;;;;;0.00;0.00;;;;;;;;;;5079749;28;20024;-83
2023/05/19 04:21:50;;;;;;;0.00;0.00;;;;;;;;;;5077478;28;20032;-83
2023/05/19 04:24:16;;;;;;;0.10;0.10;;;;;;;;;;5072105;28;20025;-81
2023/05/19 04:26:44;;;;;;;0.00;0.00;;;;;;;;;;5083202;28;20031;-83
2023/05/19 04:29:12;;;;;;;0.00;0.00;;;;;;;;;;5074820;28;20483;-81
2023/05/19 04:31:39;;;;;;;0.10;0.10;;;;;;;;;;5073672;28;20032;-83
2023/05/19 04:34:06;;;;;;;0.00;0.00;;;;;;;;;;5082540;28;20051;-81
2023/05/19 04:36:32;;;;;;;0.00;0.00;;;;;;;;;;5104929;28;20035;-83
2023/05/19 04:39:01;;;;;;;0.00;0.00;;;;;;;;;;5072968;28;20024;-82
2023/05/19 04:41:27;;;;;;;0.32;0.32;;;;;;;;;;5066875;28;20040;-83
2023/05/19 04:43:52;;;;;;;0.00;0.00;;;;;;;;;;5057359;28;20029;-82
2023/05/19 04:46:22;;;;;;;0.00;0.00;;;;;;;;;;5087352;28;20024;-81
2023/05/19 04:48:49;;;;;;;0.00;0.00;;;;;;;;;;5063440;28;20043;-82
2023/05/19 04:51:15;;;;;;;0.20;0.20;;;;;;;;;;5060461;28;20394;-81
2023/05/19 04:53:41;;;;;;;0.22;0.22;;;;;;;;;;5061499;28;20031;-82
2023/05/19 04:56:08;;;;;;;0.05;0.05;;;;;;;;;;5054701;28;20025;-80
2023/05/19 04:58:33;;;;;;;0.00;0.00;;;;;;;;;;5064196;28;20078;-82
2023/05/19 05:00:59;;;;;;;0.00;0.00;;;;;;;;;;5052366;28;20428;-81
2023/05/19 05:03:25;;;;;;;0.00;0.00;;;;;;;;;;5054187;28;20028;-82
2023/05/19 05:05:51;;;;;;;0.00;0.00;;;;;;;;;;5066794;28;20032;-80
2023/05/19 05:08:21;;;;;;;0.00;0.00;;;;;;;;;;5063027;28;20088;-84
2023/05/19 05:10:49;;;;;;;0.00;0.00;;;;;;;;;;5061767;28;20021;-82
2023/05/19 05:13:15;;;;;;;0.00;0.00;;;;;;;;;;5061695;28;20099;-83
2023/05/19 05:15:41;;;;;;;0.00;0.00;;;;;;;;;;5065796;28;20059;-80
2023/05/19 05:18:07;;;;;;;0.08;0.08;;;;;;;;;;5056916;28;20031;-82
2023/05/19 05:20:32;;;;;;;0.00;0.00;;;;;;;;;;5052684;28;20946;-82
2023/05/19 05:22:58;;;;;;;0.00;0.00;;;;;;;;;;5057924;28;20071;-82
2023/05/19 05:25:24;;;;;;;0.00;0.00;;;;;;;;;;5056670;28;20045;-81
2023/05/19 05:27:49;;;;;;;0.15;0.15;;;;;;;;;;5056429;28;20025;-81
2023/05/19 05:30:15;;;;;;;0.00;0.00;;;;;;;;;;5055556;28;20054;-81
2023/05/19 05:32:40;;;;;;;0.00;0.00;;;;;;;;;;5058717;28;20032;-81
2023/05/19 05:35:06;;;;;;;0.10;0.10;;;;;;;;;;5050767;28;20020;-80
2023/05/19 05:37:31;;;;;;;0.00;0.00;;;;;;;;;;5056239;28;20028;-82
2023/05/19 05:39:57;;;;;;;0.00;0.00;;;;;;;;;;5071720;28;20039;-81
2023/05/19 05:42:23;;;;;;;0.00;0.00;;;;;;;;;;5078328;28;20094;-81
2023/05/19 05:44:49;;;;;;;0.45;0.45;;;;;;;;;;5075015;28;20036;-82
2023/05/19 05:47:14;;;;;;;0.00;0.00;;;;;;;;;;5078238;28;20055;-80
2023/05/19 05:49:40;;;;;;;0.00;0.00;;;;;;;;;;5072997;28;20028;-79
2023/05/19 05:52:10;;;;;;;0.10;0.10;;;;;;;;;;5077908;28;20036;-79
2023/05/19 05:54:35;;;;;;;0.00;0.00;;;;;;;;;;5079640;28;20489;-80
2023/05/19 05:57:02;;;;;;;0.00;0.00;;;;;;;;;;5080023;28;20142;-82
2023/05/19 05:59:27;;;;;;;0.00;0.00;;;;;;;;;;5080890;28;20501;-82
2023/05/19 06:01:53;;;;;;;0.08;0.08;;;;;;;;;;5077055;28;20033;-84
2023/05/19 06:04:19;;;;;;;0.00;0.00;;;;;;;;;;5069687;28;20016;-81
2023/05/19 06:06:45;;;;;;;0.05;0.05;;;;;;;;;;5075847;28;20021;-84
2023/05/19 06:09:11;;;;;;;0.10;0.10;;;;;;;;;;5083262;28;20136;-81
2023/05/19 06:11:36;;;;;;;0.00;0.00;;;;;;;;;;5078758;28;20028;-84
2023/05/19 06:14:02;;;;;;;0.00;0.00;;;;;;;;;;5072542;28;20126;-82
2023/05/19 06:16:27;;;;;;;0.00;0.00;;;;;;;;;;5071138;28;20051;-83
2023/05/19 06:18:53;;;;;;;0.00;0.00;;;;;;;;;;5071176;28;20023;-81
2023/05/19 06:21:18;;;;;;;0.00;0.00;;;;;;;;;;5078628;28;20088;-83
2023/05/19 06:23:43;;;;;;;0.00;0.00;;;;;;;;;;5082842;28;20043;-83
2023/05/19 06:26:09;;;;;;;0.00;0.00;;;;;;;;;;5074234;28;20476;-84
2023/05/19 06:28:34;;;;;;;0.08;0.08;;;;;;;;;;5080962;28;20552;-84
2023/05/19 06:31:00;;;;;;;0.00;0.00;;;;;;;;;;5079974;28;20123;-84
2023/05/19 06:33:25;;;;;;;0.10;0.10;;;;;;;;;;5072332;28;20024;-81
2023/05/19 06:35:51;;;;;;;0.00;0.00;;;;;;;;;;5082100;28;20044;-82
2023/05/19 06:38:16;;;;;;;0.30;0.15;;;;;;;;;;5077660;28;20488;-83
2023/05/19 06:40:42;;;;;;;0.00;0.00;;;;;;;;;;5074864;28;20567;-83
2023/05/19 06:43:07;;;;;;;0.00;0.00;;;;;;;;;;5075021;28;20032;-83
2023/05/19 06:45:32;;;;;;;0.00;0.00;;;;;;;;;;5074858;28;20019;-83
2023/05/19 06:47:58;;;;;;;0.20;0.20;;;;;;;;;;5070956;28;20029;-84
2023/05/19 06:50:24;;;;;;;0.10;0.10;;;;;;;;;;5078375;28;20060;-83
2023/05/19 06:52:50;;;;;;;0.00;0.00;;;;;;;;;;5072730;28;20102;-82
2023/05/19 06:55:15;;;;;;;0.00;0.00;;;;;;;;;;5071046;28;20032;-82
2023/05/19 06:57:41;;;;;;;0.10;0.10;;;;;;;;;;5077024;28;20032;-80
2023/05/19 07:00:10;;;;;;;0.00;0.00;;;;;;;;;;5069572;28;20081;-84
2023/05/19 07:02:35;;;;;;;0.00;0.00;;;;;;;;;;5077393;28;20065;-83
2023/05/19 07:05:01;;;;;;;0.00;0.00;;;;;;;;;;5077883;28;20388;-81
2023/05/19 07:07:27;;;;;;;0.00;0.00;;;;;;;;;;5073977;28;20032;-83
2023/05/19 07:09:53;;;;;;;0.00;0.00;;;;;;;;;;5069340;28;20635;-82
2023/05/19 07:12:18;;;;;;;0.00;0.00;;;;;;;;;;5076522;28;20103;-85
2023/05/19 07:14:44;;;;;;;0.00;0.00;;;;;;;;;;5074772;28;20058;-84
2023/05/19 07:17:09;;;;;;;0.00;0.00;;;;;;;;;;5076467;28;20055;-84
2023/05/19 07:19:35;;;;;;;0.00;0.00;;;;;;;;;;5077228;28;20035;-89
2023/05/19 07:22:00;;;;;;;0.20;0.20;;;;;;;;;;5083344;28;20072;-88
2023/05/19 07:24:26;;;;;;;0.00;0.00;;;;;;;;;;5078220;28;20074;-88
2023/05/19 07:26:51;;;;;;;0.25;0.25;;;;;;;;;;5087318;28;20026;-90
2023/05/19 07:29:17;;;;;;;0.10;0.10;;;;;;;;;;5086591;28;20103;-88
2023/05/19 07:31:42;;;;;;;0.17;0.13;;;;;;;;;;5109811;27;20024;-89
2023/05/19 07:34:08;;;;;;;0.28;0.28;;;;;;;;;;5076540;28;20115;-84
2023/05/19 07:36:36;;;;;;;0.15;0.15;;;;;;;;;;5075560;28;20036;-86
2023/05/19 07:39:08;;;;;;;0.10;0.10;;;;;;;;;;5076826;28;20020;-89
2023/05/19 07:41:33;;;;;;;0.00;0.00;;;;;;;;;;5071413;28;20495;-86
2023/05/19 07:44:06;;;;;;;0.10;0.10;;;;;;;;;;5075401;28;20040;-86
2023/05/19 07:46:32;;;;;;;0.03;0.03;;;;;;;;;;5076591;28;20031;-87
2023/05/19 07:48:58;;;;;;;0.15;0.08;;;;;;;;;;5073320;28;20056;-87
2023/05/19 07:51:23;;;;;;;0.00;0.00;;;;;;;;;;5082868;28;20525;-87
2023/05/19 07:53:49;;;;;;;0.10;0.10;;;;;;;;;;5072438;28;20380;-85
2023/05/19 07:56:14;;;;;;;0.10;0.10;;;;;;;;;;5082865;28;20438;-84
2023/05/19 07:58:43;;;;;;;0.00;0.00;;;;;;;;;;5082637;28;20103;-83
2023/05/19 08:01:08;;;;;;;0.00;0.00;;;;;;;;;;5078908;28;20028;-86
2023/05/19 08:03:34;;;;;;;0.00;0.00;;;;;;;;;;5080566;28;20384;-85
2023/05/19 08:05:59;;;;;;;0.17;0.17;;;;;;;;;;5081922;28;20025;-87
2023/05/19 08:08:25;;;;;;;0.00;0.00;;;;;;;;;;5081093;28;20423;-84
2023/05/19 08:10:51;;;;;;;0.00;0.00;;;;;;;;;;5080580;28;20063;-88
2023/05/19 08:13:16;;;;;;;0.00;0.00;;;;;;;;;;5074812;28;20032;-89
2023/05/19 08:15:41;;;;;;;1.65;0.45;;;;;;;;;;5068778;28;20052;-89
2023/05/19 08:18:07;;;;;;;0.00;0.00;;;;;;;;;;5072589;28;20024;-84
2023/05/19 08:20:32;;;;;;;0.00;0.00;;;;;;;;;;5079005;28;20365;-85
2023/05/19 08:22:58;;;;;;;0.00;0.00;;;;;;;;;;5073457;28;20098;-88
2023/05/19 08:25:23;;;;;;;0.05;0.05;;;;;;;;;;5081769;28;20074;-90
2023/05/19 08:27:49;;;;;;;0.00;0.00;;;;;;;;;;5085539;28;20498;-89
2023/05/19 08:30:15;;;;;;;0.00;0.00;;;;;;;;;;5087564;28;20433;-89
2023/05/19 08:32:40;;;;;;;0.00;0.00;;;;;;;;;;5080869;28;20399;-87
2023/05/19 08:35:06;;;;;;;0.00;0.00;;;;;;;;;;5077750;28;20108;-88
2023/05/19 08:37:32;;;;;;;0.08;0.08;;;;;;;;;;5074776;28;20055;-83
2023/05/19 08:39:58;;;;;;;0.00;0.00;;;;;;;;;;5074390;28;20158;-86
2023/05/19 08:42:23;;;;;;;0.00;0.00;;;;;;;;;;5076033;28;20524;-85
2023/05/19 08:44:48;;;;;;;0.28;0.10;;;;;;;;;;5076177;28;20081;-87
2023/05/19 08:47:14;;;;;;;0.10;0.10;;;;;;;;;;5080091;28;20476;-85
2023/05/19 08:49:44;;;;;;;0.00;0.00;;;;;;;;;;5083704;28;20077;-85
2023/05/19 08:52:37;;;;;;;0.22;0.22;;;;;;;;;;5071642;28;20025;-85
2023/05/19 08:55:08;;;;;;;0.00;0.00;;;;;;;;;;5082709;28;20032;-85
2023/05/19 08:57:35;;;;;;;0.00;0.00;;;;;;;;;;5077398;28;21529;-83
2023/05/19 09:00:21;;;;;;;0.00;0.00;;;;;;;;;;5075683;28;20032;-87
2023/05/19 09:02:49;;;;;;;0.00;0.00;;;;;;;;;;5073668;28;20036;-87
2023/05/19 09:05:30;;;;;;;0.00;0.00;;;;;;;;;;5074419;28;20511;-87
2023/05/19 09:07:59;;;;;;;0.00;0.00;;;;;;;;;;5074775;28;20029;-85
2023/05/19 09:10:27;;;;;;;0.25;0.22;;;;;;;;;;5072346;28;20078;-86
2023/05/19 09:12:55;;;;;;;0.00;0.00;;;;;;;;;;5082332;28;20036;-86
2023/05/19 09:15:26;;;;;;;0.00;0.00;;;;;;;;;;5086640;28;20027;-82
2023/05/19 09:18:25;;;;;;;0.05;0.05;;;;;;;;;;5081006;28;20028;-85
2023/05/19 09:20:58;;;;;;;;;;;;;;;;;;5081488;28;20039;-81
2023/05/19 09:23:28;;;;;;;0.10;0.10;;;;;;;;;;5075307;28;19912;-87
2023/05/19 09:26:06;;;;;;;0.00;0.00;;;;;;;;;;5082607;28;20029;-90
2023/05/19 09:29:04;;;;;;;0.00;0.00;;;;;;;;;;5080510;28;20127;-89
2023/05/19 09:31:33;;;;;;;0.00;0.00;;;;;;;;;;5108876;27;20032;-88
2023/05/19 09:34:30;;;;;;;0.10;0.10;;;;;;;;;;5074796;28;20078;-89
2023/05/19 09:40:16;;;;;;;0.00;0.00;;;;;;;;;;5083803;28;20064;-87
2023/05/19 09:42:43;;;;;;;0.00;0.00;;;;;;;;;;5114246;27;20043;-88
2023/05/19 09:45:16;;;;;;;0.73;0.73;;;;;;;;;;5082729;28;20040;-84
2023/05/19 09:47:42;;;;;;;0.05;0.05;;;;;;;;;;5083009;28;20039;-86
2023/05/19 09:50:13;;;;;;;0.80;0.47;;;;;;;;;;5078334;28;20023;-86
2023/05/19 09:52:51;;;;;;;1.65;0.85;;;;;;;;;;5082266;28;20032;-87
2023/05/19 09:55:27;;;;;;;0.00;0.00;;;;;;;;;;5083585;28;20032;-86
2023/05/19 09:58:00;;;;;;;0.20;0.20;;;;;;;;;;5080609;28;20454;-85
2023/05/19 10:00:33;;;;;;;0.15;0.15;;;;;;;;;;5082147;28;20043;-85
2023/05/19 10:03:03;;;;;;;0.28;0.28;;;;;;;;;;5083691;28;20046;-83
2023/05/19 10:06:04;;;;;;;0.10;0.10;;;;;;;;;;5082577;28;20048;-82
2023/05/19 10:08:55;;;;;;;0.10;0.10;;;;;;;;;;5071416;28;20073;-86
2023/05/19 10:11:41;;;;;;;0.15;0.15;;;;;;;;;;5076224;28;20056;-88
2023/05/19 10:14:08;;;;;;;0.00;0.00;;;;;;;;;;5079742;28;20547;-86
2023/05/19 10:16:40;;;;;;;0.45;0.45;;;;;;;;;;5080708;28;20020;-87
2023/05/19 10:19:21;;;;;;;0.00;0.00;;;;;;;;;;5077861;28;20035;-83
2023/05/19 10:22:16;;;;;;;0.28;0.28;;;;;;;;;;5077376;28;20028;-82
2023/05/19 10:25:02;;;;;;;0.00;0.00;;;;;;;;;;5059780;28;20514;-87
2023/05/19 10:27:54;;;;;;;0.03;0.03;;;;;;;;;;5039936;28;20036;-85
2023/05/19 10:30:37;;;;;;;0.10;0.10;;;;;;;;;;5052875;28;20510;-86
2023/05/19 10:33:07;;;;;;;0.43;0.10;;;;;;;;;;5057200;28;20040;-81
2023/05/19 10:39:49;;;;;;;0.00;0.00;;;;;;;;;;5054399;28;20039;-87
2023/05/19 10:42:33;;;;;;;0.25;0.25;;;;;;;;;;5059474;28;20041;-90
2023/05/19 10:45:18;;;;;;;0.10;0.10;;;;;;;;;;5072071;28;20420;-89
2023/05/19 10:47:51;;;;;;;0.50;0.50;;;;;;;;;;5052587;28;20470;-86
2023/05/19 10:50:21;;;;;;;0.55;0.40;;;;;;;;;;5040372;28;20033;-87
2023/05/19 10:53:17;;;;;;;0.00;0.00;;;;;;;;;;5059260;28;20044;-83
2023/05/19 10:55:48;;;;;;;0.28;0.28;;;;;;;;;;5051036;28;20512;-85
2023/05/19 10:58:32;;;;;;;0.08;0.08;;;;;;;;;;5078162;28;20044;-87
2023/05/19 11:01:03;;;;;;;0.68;0.30;;;;;;;;;;5073244;28;20024;-83
2023/05/19 11:06:52;;;;;;;0.05;0.05;;;;;;;;;;5076547;28;20032;-83
2023/05/19 11:09:35;;;;;;;0.00;0.00;;;;;;;;;;5073958;28;20112;-89
2023/05/19 11:12:09;;;;;;;0.03;0.03;;;;;;;;;;5078208;28;20035;-86
2023/05/19 11:14:39;;;;;;;0.40;0.22;;;;;;;;;;5079150;28;20028;-85
2023/05/19 11:17:28;;;;;;;0.28;0.28;;;;;;;;;;5077998;28;20593;-87
2023/05/19 11:20:25;;;;;;;0.52;0.52;;;;;;;;;;5075284;28;20052;-87
2023/05/19 11:23:32;;;;;;;0.00;0.00;;;;;;;;;;5040097;28;20044;-86
2023/05/19 11:26:04;;;;;;;0.00;0.00;;;;;;;;;;5079301;28;20021;-85
2023/05/19 11:28:42;;;;;;;0.10;0.10;;;;;;;;;;5074552;28;20102;-84
2023/05/19 11:31:13;;;;;;;0.00;0.00;;;;;;;;;;5077459;28;20039;-84
2023/05/19 11:33:38;;;;;;;0.10;0.10;;;;;;;;;;5072273;28;20115;-84
2023/05/19 11:36:05;;;;;;;0.00;0.00;;;;;;;;;;5080406;28;20145;-86
2023/05/19 11:38:31;;;;;;;0.00;0.00;;;;;;;;;;5079603;28;20055;-87
2023/05/19 11:40:56;;;;;;;0.10;0.10;;;;;;;;;;5078015;28;20051;-90
2023/05/19 11:43:23;;;;;;;0.20;0.20;;;;;;;;;;5075376;28;20020;-85
2023/05/19 11:45:49;;;;;;;0.10;0.10;;;;;;;;;;5081377;28;20099;-84
2023/05/19 11:48:16;;;;;;;0.15;0.15;;;;;;;;;;5075160;28;20158;-84
2023/05/19 11:50:42;;;;;;;0.32;0.30;;;;;;;;;;5075626;28;20430;-85
2023/05/19 11:53:11;;;;;;;0.45;0.32;;;;;;;;;;5081301;28;20036;-81
2023/05/19 11:55:42;;;;;;;0.27;0.27;;;;;;;;;;5076845;28;20036;-83
2023/05/19 11:58:07;;;;;;;0.22;0.17;;;;;;;;;;5085083;28;20016;-85
2023/05/19 12:00:39;;;;;;;0.10;0.10;;;;;;;;;;5075820;28;20048;-83
2023/05/19 12:03:05;;;;;;;0.00;0.00;;;;;;;;;;5078306;28;20027;-84
2023/05/19 12:05:31;;;;;;;0.00;0.00;;;;;;;;;;5077189;28;20078;-84
2023/05/19 12:07:58;;;;;;;0.20;0.20;;;;;;;;;;5076489;28;20484;-83
2023/05/19 12:10:26;;;;;;;0.77;0.50;;;;;;;;;;5069524;28;20020;-84
2023/05/19 12:12:52;;;;;;;0.00;0.00;;;;;;;;;;5070412;28;20028;-86
2023/05/19 12:15:22;;;;;;;0.00;0.00;;;;;;;;;;5081777;28;20021;-81
2023/05/19 12:17:49;;;;;;;0.00;0.00;;;;;;;;;;5078428;28;20357;-85
2023/05/19 12:20:14;;;;;;;0.00;0.00;;;;;;;;;;5082804;28;20024;-84
2023/05/19 12:22:40;;;;;;;0.00;0.00;;;;;;;;;;5079233;28;20027;-83
2023/05/19 12:25:06;;;;;;;0.00;0.00;;;;;;;;;;5080501;28;20111;-86
2023/05/19 12:27:35;;;;;;;0.00;0.00;;;;;;;;;;5079937;28;20024;-88
2023/05/19 12:30:02;;;;;;;0.30;0.20;;;;;;;;;;5081420;28;20032;-85
2023/05/19 12:32:28;;;;;;;0.10;0.10;;;;;;;;;;5084224;28;20035;-84
2023/05/19 12:34:56;;;;;;;0.10;0.10;;;;;;;;;;5080440;28;20024;-85
2023/05/19 12:37:25;;;;;;;0.00;0.00;;;;;;;;;;5088784;28;20032;-81
2023/05/19 12:39:50;;;;;;;0.00;0.00;;;;;;;;;;5086180;28;20502;-83
2023/05/19 12:42:16;;;;;;;0.00;0.00;;;;;;;;;;5085951;28;20024;-83
2023/05/19 12:44:45;;;;;;;0.10;0.10;;;;;;;;;;5082114;28;20043;-83
2023/05/19 12:47:11;;;;;;;0.00;0.00;;;;;;;;;;5082420;28;20024;-83
2023/05/19 12:49:58;;;;;;;0.10;0.10;;;;;;;;;;5081584;28;20387;-83
2023/05/19 12:52:24;;;;;;;0.55;0.35;;;;;;;;;;5077685;28;20032;-86
2023/05/19 12:54:56;;;;;;;0.00;0.00;;;;;;;;;;5079664;28;20157;-84
2023/05/19 12:57:22;;;;;;;0.05;0.05;;;;;;;;;;5076701;28;20399;-84
2023/05/19 12:59:48;;;;;;;0.10;0.10;;;;;;;;;;5086251;28;20024;-89
2023/05/19 13:02:14;;;;;;;0.00;0.00;;;;;;;;;;5084545;28;20033;-85
2023/05/19 13:04:40;;;;;;;0.40;0.40;;;;;;;;;;5077102;28;20049;-86
2023/05/19 13:07:05;;;;;;;0.10;0.10;;;;;;;;;;5077053;28;20521;-87
2023/05/19 13:09:33;;;;;;;0.00;0.00;;;;;;;;;;5077164;28;20048;-83
2023/05/19 13:11:59;;;;;;;0.10;0.10;;;;;;;;;;5080797;28;20030;-84
2023/05/19 13:14:24;;;;;;;0.30;0.30;;;;;;;;;;5082529;28;20102;-86
2023/05/19 13:16:50;;;;;;;0.10;0.10;;;;;;;;;;5069847;28;20082;-84
2023/05/19 13:19:18;;;;;;;0.63;0.63;;;;;;;;;;5080110;28;20537;-84
2023/05/19 13:21:46;;;;;;;0.10;0.10;;;;;;;;;;5078395;28;20030;-83
2023/05/19 13:24:12;;;;;;;0.05;0.05;;;;;;;;;;5083471;28;20028;-83
2023/05/19 13:26:38;;;;;;;0.43;0.32;;;;;;;;;;5087581;28;20054;-84
2023/05/19 13:29:03;;;;;;;0.17;0.17;;;;;;;;;;5075618;28;20076;-83
2023/05/19 13:31:29;;;;;;;0.45;0.20;;;;;;;;;;5075708;28;20051;-83
2023/05/19 13:33:54;;;;;;;0.00;0.00;;;;;;;;;;5077380;28;20486;-82
2023/05/19 13:36:20;;;;;;;0.00;0.00;;;;;;;;;;5089550;28;20476;-82
2023/05/19 13:38:45;;;;;;;0.00;0.00;;;;;;;;;;5079995;28;20025;-84
2023/05/19 13:41:10;;;;;;;0.45;0.45;;;;;;;;;;5078130;28;20040;-82
2023/05/19 13:43:36;;;;;;;0.43;0.43;;;;;;;;;;5080998;28;20412;-83
2023/05/19 13:46:01;;;;;;;0.08;0.08;;;;;;;;;;5084486;28;20032;-81
2023/05/19 13:48:27;;;;;;;0.05;0.05;;;;;;;;;;5082145;28;20475;-84
2023/05/19 13:50:54;;;;;;;0.00;0.00;;;;;;;;;;5084734;28;20027;-81
2023/05/19 13:53:20;;;;;;;0.10;0.10;;;;;;;;;;5083770;28;20034;-82
2023/05/19 13:55:46;;;;;;;0.15;0.08;;;;;;;;;;5077301;28;20027;-82
2023/05/19 13:58:13;;;;;;;0.00;0.00;;;;;;;;;;5078340;28;20028;-82
2023/05/19 14:00:40;;;;;;;0.10;0.10;;;;;;;;;;5085402;28;20031;-82
2023/05/19 14:03:05;;;;;;;0.05;0.05;;;;;;;;;;5074085;28;20032;-81
2023/05/19 14:05:31;;;;;;;0.32;0.32;;;;;;;;;;5075045;28;20358;-82
2023/05/19 14:07:58;;;;;;;0.10;0.10;;;;;;;;;;5084721;28;20024;-81
2023/05/19 14:10:24;;;;;;;0.95;0.63;;;;;;;;;;5073167;28;20460;-82
2023/05/19 14:12:49;;;;;;;0.47;0.30;;;;;;;;;;5073853;28;20031;-83
2023/05/19 14:15:15;;;;;;;0.38;0.32;;;;;;;;;;5078898;28;20484;-81
2023/05/19 14:17:40;;;;;;;0.17;0.17;;;;;;;;;;5075307;28;20020;-82
2023/05/19 14:20:06;;;;;;;0.20;0.20;;;;;;;;;;5082906;28;20070;-84
2023/05/19 14:22:31;;;;;;;0.20;0.20;;;;;;;;;;5082656;28;20028;-83
2023/05/19 14:24:57;;;;;;;0.10;0.10;;;;;;;;;;5078777;28;20040;-84
2023/05/19 14:27:22;;;;;;;0.10;0.10;;;;;;;;;;5081539;28;20046;-84
2023/05/19 14:29:47;;;;;;;0.10;0.10;;;;;;;;;;5075736;28;20443;-82
2023/05/19 14:32:13;;;;;;;0.30;0.30;;;;;;;;;;5073517;28;20086;-83
2023/05/19 14:34:38;;;;;;;0.03;0.03;;;;;;;;;;5076504;28;20036;-84
2023/05/19 14:37:04;;;;;;;0.22;0.22;;;;;;;;;;5086154;28;20475;-83
2023/05/19 14:39:30;;;;;;;0.25;0.20;;;;;;;;;;5082064;28;20166;-84
2023/05/19 14:41:58;;;;;;;0.40;0.40;;;;;;;;;;5076326;28;20054;-83
2023/05/19 14:44:23;;;;;;;0.15;0.15;;;;;;;;;;5074873;28;20090;-84
2023/05/19 14:46:49;;;;;;;0.35;0.35;;;;;;;;;;5081943;28;20422;-83
2023/05/19 14:49:14;;;;;;;0.15;0.15;;;;;;;;;;5085210;28;20524;-85
2023/05/19 14:51:40;;;;;;;0.00;0.00;;;;;;;;;;5076548;28;20025;-87
2023/05/19 14:54:05;;;;;;;0.20;0.20;;;;;;;;;;5073170;28;20028;-82
2023/05/19 14:56:31;;;;;;;0.20;0.20;;;;;;;;;;5088148;28;20020;-83
2023/05/19 14:58:56;;;;;;;0.30;0.30;;;;;;;;;;5083865;28;20027;-83
2023/05/19 15:01:21;;;;;;;0.10;0.10;;;;;;;;;;5072966;28;20030;-86
2023/05/19 15:03:47;;;;;;;0.05;0.05;;;;;;;;;;5077865;28;20470;-83